Time;durP1;ratioP1;P1;durP2;ratioP2;P2;SDS_P1;SDS_P2;PMS_P1;PMS_P2;Temp;Humidity;BMP_temperature;BMP_pressure;BME280_temperature;BME280_humidity;BME280_pressure;Samples;Min_cycle;Max_cycle;Signal;HPM_P1;HPM_P2
2022/02/08 00:07:19;;;;;;;1999.90;999.90;;;;;;;5.90;70.92;101881.34;15637008;28;20057;-59
2022/02/08 00:14:54;;;;;;;1999.90;999.90;;;;;;;6.06;69.98;101881.13;15656803;28;20443;-60
2022/02/08 00:22:26;;;;;;;1999.90;999.90;;;;;;;5.99;70.17;101880.56;15656737;28;20049;-60
2022/02/08 00:30:00;;;;;;;1999.90;999.90;;;;;;;6.16;70.36;101882.25;15658414;28;20053;-58
2022/02/08 00:37:33;;;;;;;1999.90;999.90;;;;;;;5.94;71.05;101899.94;15613790;28;20052;-61
2022/02/08 00:45:23;;;;;;;1999.90;999.90;;;;;;;6.02;70.76;101913.25;15645253;28;20103;-59
2022/02/08 00:52:56;;;;;;;1999.90;999.90;;;;;;;5.83;70.92;101914.00;15606803;28;20056;-60
2022/02/08 01:00:30;;;;;;;1999.90;999.90;;;;;;;6.16;69.84;101910.81;15636992;28;20049;-59
2022/02/08 01:08:03;;;;;;;;;;;;;;;5.97;70.26;101916.03;15654432;28;20110;-59
2022/02/08 01:15:37;;;;;;;;;;;;;;;5.87;70.73;101909.59;15633269;28;19927;-59
2022/02/08 01:23:11;;;;;;;1999.90;999.90;;;;;;;5.62;71.41;101891.75;15633193;28;19921;-58
2022/02/08 01:30:56;;;;;;;1999.90;999.90;;;;;;;5.78;70.11;101903.75;15631126;28;20045;-61
2022/02/08 01:38:31;;;;;;;1999.90;999.90;;;;;;;5.71;70.30;101903.16;15661857;28;20379;-60
2022/02/08 01:46:12;;;;;;;1999.90;999.90;;;;;;;5.73;70.08;101890.72;15632136;28;20029;-61
2022/02/08 01:53:45;;;;;;;1999.90;999.90;;;;;;;5.54;70.18;101888.72;15635277;28;20049;-59
2022/02/08 02:01:19;;;;;;;1999.90;999.90;;;;;;;5.63;69.59;101901.75;15621788;28;20049;-58
2022/02/08 02:08:52;;;;;;;1999.90;999.90;;;;;;;5.45;69.99;101889.22;15626477;28;20044;-60
2022/02/08 02:16:36;;;;;;;1999.90;999.90;;;;;;;5.25;70.75;101889.13;15634939;28;20038;-59
2022/02/08 02:24:10;;;;;;;1999.90;999.90;;;;;;;5.07;71.69;101889.56;15618161;28;20529;-63
2022/02/08 02:31:42;;;;;;;1999.90;999.90;;;;;;;5.11;72.15;101883.25;15664830;28;20038;-59
2022/02/08 02:39:21;;;;;;;1999.90;999.90;;;;;;;5.39;71.19;101881.16;15637317;28;20048;-60
2022/02/08 02:46:53;;;;;;;1999.90;999.90;;;;;;;5.25;70.75;101871.69;15664108;28;20068;-61
2022/02/08 02:54:28;;;;;;;;;;;;;;;5.34;71.36;101870.06;15664599;28;20474;-61
2022/02/08 03:02:27;;;;;;;1999.90;999.90;;;;;;;5.36;70.35;101849.31;15663841;28;19921;-62
2022/02/08 03:18:12;;;;;;;1999.90;999.90;;;;;;;5.20;70.94;101834.56;15647477;28;20418;-61
2022/02/08 03:25:45;;;;;;;1999.90;999.90;;;;;;;5.43;69.82;101847.13;15655633;28;20552;-61
2022/02/08 03:33:27;;;;;;;1999.90;999.90;;;;;;;5.39;69.70;101850.69;15663761;28;20102;-59
2022/02/08 03:41:03;;;;;;;1999.90;999.90;;;;;;;5.55;68.77;101849.66;15662884;28;20060;-61
2022/02/08 03:48:38;;;;;;;1999.90;999.90;;;;;;;5.38;69.55;101843.50;15657506;28;20532;-60
2022/02/08 03:56:13;;;;;;;1999.90;999.90;;;;;;;5.49;68.10;101825.81;15637324;28;20040;-58
2022/02/08 04:04:02;;;;;;;1999.90;999.90;;;;;;;5.51;67.68;101826.38;15642513;28;20498;-61
2022/02/08 04:11:40;;;;;;;1999.90;999.90;;;;;;;5.95;66.37;101812.13;15650847;28;20041;-59
2022/02/08 04:19:19;;;;;;;1999.90;999.90;;;;;;;5.78;66.14;101813.16;15636979;28;20059;-59
2022/02/08 04:34:54;;;;;;;1999.90;999.90;;;;;;;5.98;65.06;101787.47;15668243;28;20041;-58
2022/02/08 04:42:34;;;;;;;;;;;;;;;6.27;64.32;101781.38;15626567;28;20685;-61
2022/02/08 04:50:07;;;;;;;1999.90;999.90;;;;;;;6.06;64.46;101775.00;15639098;28;19928;-59
2022/02/08 04:57:47;;;;;;;1999.90;999.90;;;;;;;6.32;64.13;101761.94;15670484;28;20124;-58
2022/02/08 05:44:57;;;;;;;1999.90;999.90;;;;;;;6.09;64.97;101721.78;15607812;28;20046;-61
2022/02/08 06:00:26;;;;;;;1999.90;999.90;;;;;;;6.17;66.37;101704.59;15654311;28;20127;-61
2022/02/08 06:08:14;;;;;;;1999.90;999.90;;;;;;;6.03;68.67;101714.56;15637609;28;20375;-60
2022/02/08 06:15:50;;;;;;;1999.90;999.90;;;;;;;6.27;67.38;101714.84;15608739;28;20057;-61
2022/02/08 06:23:22;;;;;;;1999.90;999.90;;;;;;;6.35;66.66;101692.06;15616061;28;20046;-59
2022/02/08 06:30:55;;;;;;;1999.90;999.90;;;;;;;6.19;67.81;101694.06;15672987;28;20119;-58
2022/02/08 06:38:27;;;;;;;1999.90;999.90;;;;;;;6.51;67.49;101685.38;15697414;28;20084;-60
2022/02/08 06:46:01;;;;;;;1999.90;999.90;;;;;;;6.48;67.65;101687.91;15616282;28;20506;-57
2022/02/08 06:53:33;;;;;;;1999.90;999.90;;;;;;;6.50;67.44;101688.44;15586579;28;20064;-60
2022/02/08 07:01:06;;;;;;;1999.90;999.90;;;;;;;6.63;67.30;101690.59;15663080;28;20121;-59
2022/02/08 07:08:38;;;;;;;1999.90;999.90;;;;;;;6.74;66.75;101695.00;15601179;28;20080;-60
2022/02/08 07:16:13;;;;;;;1999.90;999.90;;;;;;;6.72;67.82;101696.41;15602426;28;20437;-62
2022/02/08 07:23:45;;;;;;;1999.90;999.90;;;;;;;6.88;67.77;101701.63;15629862;28;20055;-59
2022/02/08 07:31:21;;;;;;;1999.90;999.90;;;;;;;6.89;70.66;101696.88;15662416;28;20071;-58
2022/02/08 07:38:53;;;;;;;1999.90;999.90;;;;;;;6.48;73.52;101685.13;15675193;28;20056;-60
2022/02/08 07:46:27;;;;;;;1999.90;999.90;;;;;;;6.58;74.14;101685.09;15663599;28;20087;-60
2022/02/08 07:54:00;;;;;;;1999.90;999.90;;;;;;;6.42;75.52;101684.28;15651913;28;20095;-61
2022/02/08 08:01:34;;;;;;;1999.90;999.90;;;;;;;6.62;76.38;101688.94;15649230;28;20045;-62
2022/02/08 08:09:06;;;;;;;1999.90;999.90;;;;;;;6.74;77.06;101681.13;15668010;28;20037;-58
2022/02/08 08:16:50;;;;;;;1999.90;999.90;;;;;;;6.25;79.59;101672.69;15609091;28;20042;-61
2022/02/08 08:24:25;;;;;;;1999.90;999.90;;;;;;;6.41;79.85;101667.94;15643123;28;20045;-61
2022/02/08 08:31:58;;;;;;;1999.90;999.90;;;;;;;6.93;79.05;101667.44;15677841;28;20043;-59
2022/02/08 08:39:37;;;;;;;1999.90;999.90;;;;;;;6.69;79.94;101677.56;15677200;28;20387;-60
2022/02/08 08:55:00;;;;;;;1999.90;999.90;;;;;;;7.31;78.50;101667.78;15635603;28;20053;-57
2022/02/08 09:02:34;;;;;;;1999.90;999.90;;;;;;;7.57;78.06;101654.53;15595138;28;20052;-57
2022/02/08 09:10:11;;;;;;;1999.90;999.90;;;;;;;7.43;78.52;101657.97;15626955;28;20503;-61
2022/02/08 09:25:44;;;;;;;1999.90;999.90;;;;;;;7.64;77.94;101639.19;15616126;28;20066;-60
2022/02/08 09:33:18;;;;;;;1999.90;999.90;;;;;;;7.78;78.03;101631.00;15687233;28;20048;-59
2022/02/08 09:40:51;;;;;;;1999.90;999.90;;;;;;;7.79;78.12;101643.78;15669134;28;20079;-59
2022/02/08 09:48:29;;;;;;;1999.90;999.90;;;;;;;8.33;76.47;101651.81;15631286;28;20482;-59
2022/02/08 09:56:05;;;;;;;1999.90;999.90;;;;;;;8.26;76.35;101642.19;15632061;28;20037;-58
2022/02/08 10:03:50;;;;;;;1999.90;999.90;;;;;;;8.70;75.04;101649.50;15646474;28;20045;-60
2022/02/08 10:11:27;;;;;;;1999.90;999.90;;;;;;;8.35;75.94;101638.50;15683918;28;20056;-59
2022/02/08 10:26:59;;;;;;;1999.90;999.90;;;;;;;8.44;76.67;101619.22;15666589;28;20053;-59
2022/02/08 10:42:22;;;;;;;1999.90;999.90;;;;;;;9.07;75.47;101601.38;15658615;28;20108;-58
2022/02/08 10:49:59;;;;;;;1999.90;999.90;;;;;;;8.86;76.34;101598.91;15683031;28;20472;-57
2022/02/08 10:57:43;;;;;;;1999.90;999.90;;;;;;;9.03;75.66;101586.41;15637878;28;20057;-59
2022/02/08 11:05:23;;;;;;;1999.90;999.90;;;;;;;9.21;75.12;101591.97;15666556;28;20094;-61
2022/02/08 11:12:57;;;;;;;1999.90;999.90;;;;;;;9.32;74.79;101584.28;15682218;28;20052;-60
2022/02/08 11:20:35;;;;;;;1999.90;999.90;;;;;;;9.40;74.29;101575.22;15681824;28;20124;-60
2022/02/08 11:28:12;;;;;;;1999.90;999.90;;;;;;;9.43;74.51;101587.72;15646395;28;20376;-62
2022/02/08 11:51:52;;;;;;;1999.90;999.90;;;;;;;9.73;73.53;101595.53;15661656;28;20406;-58
2022/02/08 11:59:31;;;;;;;1999.90;999.90;;;;;;;9.89;72.99;101598.03;15627392;28;20045;-60
2022/02/08 12:07:14;;;;;;;1999.90;999.90;;;;;;;10.02;73.00;101605.63;15669108;28;20067;-61
2022/02/08 12:55:10;;;;;;;1999.90;999.90;;;;;;;10.73;74.06;101572.63;15623397;28;20069;-63
2022/02/08 13:03:05;;;;;;;1999.90;999.90;;;;;;;11.01;73.50;101567.81;15695055;28;20040;-61
2022/02/08 14:06:10;;;;;;;1999.90;999.90;;;;;;;10.73;79.84;101576.25;15597386;28;20049;-60
2022/02/08 14:21:39;;;;;;;1999.90;999.90;;;;;;;10.70;79.19;101576.91;15621587;28;20056;-60
2022/02/08 14:37:29;;;;;;;1999.90;999.90;;;;;;;10.84;78.43;101591.66;15635767;28;20502;-59
2022/02/08 15:08:42;;;;;;;1999.90;999.90;;;;;;;10.99;76.60;101594.09;15604533;28;20045;-63
2022/02/08 15:16:25;;;;;;;1999.90;999.90;;;;;;;11.13;76.43;101598.81;15637512;28;20063;-62
2022/02/08 15:23:57;;;;;;;1999.90;999.90;;;;;;;11.02;76.30;101611.34;15653956;28;20104;-62
2022/02/08 15:31:30;;;;;;;1999.90;999.90;;;;;;;11.24;75.67;101628.97;15652323;28;20049;-62
2022/02/08 15:39:07;;;;;;;1999.90;999.90;;;;;;;11.06;76.10;101629.16;15634443;28;20056;-64
2022/02/08 15:46:45;;;;;;;1999.90;999.90;;;;;;;11.07;75.95;101633.59;15666979;28;20053;-61
2022/02/08 15:54:24;;;;;;;1999.90;999.90;;;;;;;11.13;76.08;101640.72;15648941;28;20045;-63
2022/02/08 16:09:52;;;;;;;1999.90;999.90;;;;;;;11.03;77.85;101650.16;15601415;28;20049;-63
2022/02/08 16:17:34;;;;;;;1999.90;999.90;;;;;;;10.74;80.07;101650.53;15621628;28;20055;-62
2022/02/08 16:25:16;;;;;;;1999.90;999.90;;;;;;;10.85;80.43;101656.72;15649741;28;20037;-61
2022/02/08 16:33:23;;;;;;;1999.90;999.90;;;;;;;10.70;81.19;101671.81;15646022;28;20072;-62
2022/02/08 16:56:57;;;;;;;1999.90;999.90;;;;;;;10.69;83.75;101690.53;15624166;28;20064;-61
2022/02/08 17:04:32;;;;;;;1999.90;999.90;;;;;;;10.65;84.36;101699.84;15671231;28;20042;-59
2022/02/08 17:12:12;;;;;;;1999.90;999.90;;;;;;;10.60;84.98;101711.91;15671965;28;20617;-61
2022/02/08 17:51:19;;;;;;;1999.90;999.90;;;;;;;10.81;85.09;101740.25;15621087;28;20208;-62
2022/02/08 17:58:52;;;;;;;1999.90;999.90;;;;;;;10.78;84.92;101740.06;15640985;28;20048;-64
2022/02/08 18:06:25;;;;;;;1999.90;999.90;;;;;;;10.64;85.81;101742.84;15659358;28;20059;-61
2022/02/08 18:13:58;;;;;;;1999.90;999.90;;;;;;;10.89;84.06;101759.09;15657063;28;20132;-60
2022/02/08 18:21:37;;;;;;;1999.90;999.90;;;;;;;10.85;84.10;101766.44;15639992;22;20049;-60
2022/02/08 19:09:04;;;;;;;1999.90;999.90;;;;;;;10.86;85.95;101796.00;15462905;28;20124;-61
2022/02/08 19:16:58;;;;;;;1999.90;999.90;;;;;;;10.73;86.03;101799.59;15485623;28;20065;-62
2022/02/08 19:24:32;;;;;;;1999.90;999.90;;;;;;;10.59;86.65;101798.75;15530462;28;20058;-61
2022/02/08 19:32:07;;;;;;;1999.90;999.90;;;;;;;10.70;86.07;101803.00;15510002;28;20207;-61
2022/02/08 19:39:42;;;;;;;1999.90;999.90;;;;;;;11.10;84.70;101803.34;15525748;28;20050;-56
2022/02/08 19:47:14;;;;;;;1999.90;999.90;;;;;;;11.09;85.09;101816.50;15489239;28;20054;-58
2022/02/08 19:55:04;;;;;;;1999.90;999.90;;;;;;;10.98;84.63;101838.22;15491246;28;20046;-63
2022/02/08 20:02:42;;;;;;;1999.90;999.90;;;;;;;10.86;84.94;101826.72;15542036;28;20053;-58
2022/02/08 20:10:17;;;;;;;1999.90;999.90;;;;;;;10.79;85.13;101840.25;15507909;28;20519;-56
2022/02/08 20:17:52;;;;;;;1999.90;999.90;;;;;;;10.73;85.66;101849.03;15485775;28;20097;-61
2022/02/08 20:25:26;;;;;;;1999.90;999.90;;;;;;;11.01;85.78;101852.69;15530790;28;20080;-64
2022/02/08 20:32:57;;;;;;;;;;;;;;;10.76;86.69;101854.00;15538769;28;20128;-63
2022/02/08 20:40:33;;;;;;;1999.90;999.90;;;;;;;11.25;85.06;101854.19;15528383;28;19928;-62
2022/02/08 20:48:06;;;;;;;1999.90;999.90;;;;;;;10.91;86.48;101856.50;15510413;28;20054;-62
2022/02/08 20:55:47;;;;;;;1999.90;999.90;;;;;;;10.96;86.38;101868.44;15511599;28;20088;-63
2022/02/08 21:03:27;;;;;;;1999.90;999.90;;;;;;;10.94;86.61;101865.13;15549633;28;20392;-60
2022/02/08 21:11:03;;;;;;;1999.90;999.90;;;;;;;10.66;88.65;101868.97;15523432;28;20499;-60
2022/02/08 21:18:35;;;;;;;1999.90;999.90;;;;;;;10.72;87.42;101880.88;15552943;28;20581;-62
2022/02/08 21:26:12;;;;;;;1999.90;999.90;;;;;;;11.11;86.72;101881.25;15527144;28;20110;-61
2022/02/08 21:49:36;;;;;;;1999.90;999.90;;;;;;;10.93;87.04;101893.31;15520668;28;20050;-62
2022/02/08 21:57:17;;;;;;;1999.90;999.90;;;;;;;10.96;86.54;101882.38;15512527;28;20084;-61
2022/02/08 22:04:49;;;;;;;1999.90;999.90;;;;;;;11.02;86.03;101899.03;15507511;28;20128;-62
2022/02/08 22:28:23;;;;;;;1999.90;999.90;;;;;;;10.99;86.35;101904.13;15501702;28;20499;-61
2022/02/08 22:36:07;;;;;;;1999.90;999.90;;;;;;;11.25;85.08;101901.69;15547296;28;20065;-62
2022/02/08 22:43:47;;;;;;;1999.90;999.90;;;;;;;10.99;85.47;101906.06;15523033;28;20444;-62
2022/02/08 22:51:19;;;;;;;1999.90;999.90;;;;;;;11.06;85.27;101917.69;15511109;28;20447;-61
2022/02/08 22:58:52;;;;;;;1999.90;999.90;;;;;;;11.07;85.60;101924.09;15517592;28;20050;-61
2022/02/08 23:06:24;;;;;;;1999.90;999.90;;;;;;;11.34;84.44;101932.50;15513514;28;20144;-61
2022/02/08 23:14:08;;;;;;;1999.90;999.90;;;;;;;11.15;84.92;101940.13;15497012;28;20529;-62
2022/02/08 23:37:21;;;;;;;1999.90;999.90;;;;;;;11.06;83.92;101934.44;15522784;28;20050;-61
2022/02/08 23:44:54;;;;;;;1999.90;999.90;;;;;;;11.27;83.35;101926.53;15503280;28;20137;-61
2022/02/08 23:52:31;;;;;;;1999.90;999.90;;;;;;;11.38;82.42;101921.56;15535920;28;20034;-61
